Ghayl Ba Wazir, Yemen
Current Conditions -  °F | °C
As of 8:00 PM on Saturday 22 Nov 2014 (Local Time) from OYRN Reporting Station
Clear Clear  
Wind Chill: 79°   Ceiling: Unl
Heat Index: 81°   Visibility: 6mi
Dew Point: 70°   Wind: 1mph
Humidity: 74%   Direction: NA
Pressure: 30"   Gusts: NA
Location:  14.77°N, 49.37°E
Report Text: OYRN 221700Z VRB01KT CAVOK 26/21 Q1016
Loading
Personal Weather Stations






























Interactive Weather Map New forecast layout! Learn more

10-Day Weather Forecast

Advertisements
Track Severe Weather on mobile